Yellowstone Airport
KWYS : now visible

Airfield :











YOU CAN JOIN US ON...

 
LOGIN :

Register | Disclaimer

   EN    FR    IT 

 









Legend :    VFR   Marginal VFR   IFR   Intensive IFR   Very Intensive IFR
Visi :
Ceiling :
>= 8 km
>= 3000ft
5 to 8 km
1000 to 3000 ft
1500m to 5 km
500 to 1000 ft
800 to 1500m
200 to 500 ft
< 800m
< 200 ft
Symbols :   Thunderstorms  Fog  Heavy snow  Heavy precipitations  Wind > 20 kt






- Airport Elevation : 6649 ft


KWYS - Yellowstone

CURRENT METAR :
  • 220205Z AUTO 23006KT 10SM OVC055 00/M05 A3019 RMK AO2

EXPIRED METARs :
  • 220150Z AUTO 23006KT 10SM OVC055 01/M05 A3019 RMK AO2
  • 220130Z AUTO 23005KT 10SM OVC050 01/M05 A3019 RMK AO2
  • 220110Z AUTO 23006KT 10SM OVC055 01/M05 A3018 RMK AO2
  • 220045Z AUTO 24005KT 10SM OVC060 01/M05 A3017 RMK AO2
  • 220030Z AUTO 23006KT 10SM OVC060 01/M04 A3017 RMK AO2
  • 220010Z AUTO 24006KT 10SM OVC065 01/M05 A3016 RMK AO2
  • 212350Z AUTO 23007KT 10SM OVC065 01/M05 A3016 RMK AO2
  • 212330Z AUTO 24010KT 10SM BKN055 OVC065 02/M05 A3015 RMK AO2

TAF KWYS
Valid from the 22 at 00:00 until the 23 at 00:00 UTC


212320Z 2200/2224 21009KT P6SM SCT015 BKN070
FM220400 VRB05KT 6SM BR FEW010 SCT050
FM220700 VRB03KT 6SM BR VCSH SCT007 BKN015
PROB30 2209/2215 4SM -SN BR BKN003
FM221500 22008KT P6SM VCSH SCT003 OVC025
PROB30 2218/2224 4SM -SNRA BKN003



MET'MAP, your aeronautical weather chart ! - Copyright ORBIFLY December 2007 - Disclaimer

ORBIFLY MET'MAP TEAM :

Programming & Development : Alexandra Zaïnal
Concept & Development : Baudouin d'Aumeries
Co-Development & Prog : Marc-Olivier Méhu
Technical & hardware support : Manuel Goepfert

Contact : metmap@orbifly.com




SOURCES & CREDITS :

   NOAA       Earth
Advisory